sensor_id;sensor_type;location;lat;lon;timestamp;P1;durP1;ratioP1;P2;durP2;ratioP2
22415;SDS011;12204;50.600;4.608;2023-03-16T00:00:26;4.97;;;1.63;;
22415;SDS011;12204;50.600;4.608;2023-03-16T00:05:32;4.05;;;1.60;;
22415;SDS011;12204;50.600;4.608;2023-03-16T00:10:35;4.18;;;1.60;;
22415;SDS011;12204;50.600;4.608;2023-03-16T00:15:40;5.05;;;1.60;;
22415;SDS011;12204;50.600;4.608;2023-03-16T00:20:50;5.95;;;1.52;;
22415;SDS011;12204;50.600;4.608;2023-03-16T00:25:56;4.95;;;1.48;;
22415;SDS011;12204;50.600;4.608;2023-03-16T00:31:05;3.92;;;1.50;;
22415;SDS011;12204;50.600;4.608;2023-03-16T00:36:12;3.35;;;1.30;;
22415;SDS011;12204;50.600;4.608;2023-03-16T00:41:16;3.53;;;1.45;;
22415;SDS011;12204;50.600;4.608;2023-03-16T00:46:21;4.75;;;1.50;;
22415;SDS011;12204;50.600;4.608;2023-03-16T00:51:28;3.72;;;1.40;;
22415;SDS011;12204;50.600;4.608;2023-03-16T00:56:34;3.65;;;1.42;;
22415;SDS011;12204;50.600;4.608;2023-03-16T01:01:38;3.78;;;1.35;;
22415;SDS011;12204;50.600;4.608;2023-03-16T01:06:42;3.92;;;1.55;;
22415;SDS011;12204;50.600;4.608;2023-03-16T01:11:46;3.03;;;1.20;;
22415;SDS011;12204;50.600;4.608;2023-03-16T01:16:53;4.63;;;1.48;;
22415;SDS011;12204;50.600;4.608;2023-03-16T01:21:57;4.05;;;1.55;;
22415;SDS011;12204;50.600;4.608;2023-03-16T01:27:00;4.43;;;1.40;;
22415;SDS011;12204;50.600;4.608;2023-03-16T01:32:06;4.03;;;1.38;;
22415;SDS011;12204;50.600;4.608;2023-03-16T01:37:10;3.10;;;1.40;;
22415;SDS011;12204;50.600;4.608;2023-03-16T01:42:25;3.58;;;1.17;;
22415;SDS011;12204;50.600;4.608;2023-03-16T01:47:30;3.33;;;1.30;;
22415;SDS011;12204;50.600;4.608;2023-03-16T01:52:40;3.05;;;1.30;;
22415;SDS011;12204;50.600;4.608;2023-03-16T01:57:44;3.60;;;1.25;;
22415;SDS011;12204;50.600;4.608;2023-03-16T02:02:54;3.42;;;1.25;;
22415;SDS011;12204;50.600;4.608;2023-03-16T02:08:13;3.47;;;1.30;;
22415;SDS011;12204;50.600;4.608;2023-03-16T02:13:17;3.40;;;1.20;;
22415;SDS011;12204;50.600;4.608;2023-03-16T02:18:22;4.20;;;1.30;;
22415;SDS011;12204;50.600;4.608;2023-03-16T02:23:26;3.05;;;1.30;;
22415;SDS011;12204;50.600;4.608;2023-03-16T02:28:32;3.25;;;1.25;;
22415;SDS011;12204;50.600;4.608;2023-03-16T02:33:46;3.55;;;1.30;;
22415;SDS011;12204;50.600;4.608;2023-03-16T02:38:53;2.75;;;1.10;;
22415;SDS011;12204;50.600;4.608;2023-03-16T02:43:59;3.05;;;1.20;;
22415;SDS011;12204;50.600;4.608;2023-03-16T02:54:23;4.10;;;1.30;;
22415;SDS011;12204;50.600;4.608;2023-03-16T02:59:26;2.63;;;1.10;;
22415;SDS011;12204;50.600;4.608;2023-03-16T03:04:32;3.35;;;1.10;;
22415;SDS011;12204;50.600;4.608;2023-03-16T03:09:35;2.58;;;1.08;;
22415;SDS011;12204;50.600;4.608;2023-03-16T03:14:39;3.63;;;1.30;;
22415;SDS011;12204;50.600;4.608;2023-03-16T03:19:46;2.85;;;1.08;;
22415;SDS011;12204;50.600;4.608;2023-03-16T03:24:50;3.55;;;1.20;;
22415;SDS011;12204;50.600;4.608;2023-03-16T03:29:54;1.95;;;0.82;;
22415;SDS011;12204;50.600;4.608;2023-03-16T03:34:59;2.88;;;1.02;;
22415;SDS011;12204;50.600;4.608;2023-03-16T03:40:03;3.55;;;1.10;;
22415;SDS011;12204;50.600;4.608;2023-03-16T03:45:09;3.00;;;1.10;;
22415;SDS011;12204;50.600;4.608;2023-03-16T03:50:16;2.70;;;1.00;;
22415;SDS011;12204;50.600;4.608;2023-03-16T03:55:31;3.08;;;1.00;;
22415;SDS011;12204;50.600;4.608;2023-03-16T04:00:35;3.88;;;1.10;;
22415;SDS011;12204;50.600;4.608;2023-03-16T04:05:39;2.75;;;1.05;;
22415;SDS011;12204;50.600;4.608;2023-03-16T04:10:43;3.13;;;1.00;;
22415;SDS011;12204;50.600;4.608;2023-03-16T04:15:46;2.90;;;1.00;;
22415;SDS011;12204;50.600;4.608;2023-03-16T04:20:56;3.05;;;1.08;;
22415;SDS011;12204;50.600;4.608;2023-03-16T04:26:00;4.38;;;1.13;;
22415;SDS011;12204;50.600;4.608;2023-03-16T04:31:04;3.03;;;1.15;;
22415;SDS011;12204;50.600;4.608;2023-03-16T04:36:18;3.05;;;1.00;;
22415;SDS011;12204;50.600;4.608;2023-03-16T04:41:25;3.88;;;1.10;;
22415;SDS011;12204;50.600;4.608;2023-03-16T04:46:33;2.90;;;1.10;;
22415;SDS011;12204;50.600;4.608;2023-03-16T04:51:42;2.37;;;0.90;;
22415;SDS011;12204;50.600;4.608;2023-03-16T05:02:10;1.92;;;0.88;;
22415;SDS011;12204;50.600;4.608;2023-03-16T05:07:16;2.30;;;0.90;;
22415;SDS011;12204;50.600;4.608;2023-03-16T05:12:24;2.10;;;0.85;;
22415;SDS011;12204;50.600;4.608;2023-03-16T05:17:34;2.80;;;0.98;;
22415;SDS011;12204;50.600;4.608;2023-03-16T05:22:41;3.22;;;0.98;;
22415;SDS011;12204;50.600;4.608;2023-03-16T05:27:57;1.90;;;0.90;;
22415;SDS011;12204;50.600;4.608;2023-03-16T05:33:09;2.90;;;0.93;;
22415;SDS011;12204;50.600;4.608;2023-03-16T05:38:15;2.20;;;1.00;;
22415;SDS011;12204;50.600;4.608;2023-03-16T05:43:19;2.75;;;1.00;;
22415;SDS011;12204;50.600;4.608;2023-03-16T05:48:26;1.83;;;0.80;;
22415;SDS011;12204;50.600;4.608;2023-03-16T05:53:33;2.65;;;0.98;;
22415;SDS011;12204;50.600;4.608;2023-03-16T05:58:44;2.45;;;0.80;;
22415;SDS011;12204;50.600;4.608;2023-03-16T06:03:48;3.33;;;0.90;;
22415;SDS011;12204;50.600;4.608;2023-03-16T06:08:58;2.45;;;0.90;;
22415;SDS011;12204;50.600;4.608;2023-03-16T06:14:02;2.58;;;0.90;;
22415;SDS011;12204;50.600;4.608;2023-03-16T06:19:06;2.20;;;0.82;;
22415;SDS011;12204;50.600;4.608;2023-03-16T06:24:11;1.70;;;0.80;;
22415;SDS011;12204;50.600;4.608;2023-03-16T06:29:15;3.38;;;1.00;;
22415;SDS011;12204;50.600;4.608;2023-03-16T06:34:18;1.85;;;0.90;;
22415;SDS011;12204;50.600;4.608;2023-03-16T06:39:24;2.40;;;0.88;;
22415;SDS011;12204;50.600;4.608;2023-03-16T06:44:28;2.47;;;0.88;;
22415;SDS011;12204;50.600;4.608;2023-03-16T06:49:43;1.77;;;0.90;;
22415;SDS011;12204;50.600;4.608;2023-03-16T06:54:55;2.58;;;0.90;;
22415;SDS011;12204;50.600;4.608;2023-03-16T07:00:02;1.97;;;0.80;;
22415;SDS011;12204;50.600;4.608;2023-03-16T07:05:08;1.90;;;0.70;;
22415;SDS011;12204;50.600;4.608;2023-03-16T07:10:16;2.35;;;0.80;;
22415;SDS011;12204;50.600;4.608;2023-03-16T07:15:20;1.80;;;0.80;;
22415;SDS011;12204;50.600;4.608;2023-03-16T07:20:29;2.28;;;0.80;;
22415;SDS011;12204;50.600;4.608;2023-03-16T07:30:43;2.42;;;0.88;;
22415;SDS011;12204;50.600;4.608;2023-03-16T07:36:08;2.28;;;0.88;;
22415;SDS011;12204;50.600;4.608;2023-03-16T07:41:19;1.65;;;0.70;;
22415;SDS011;12204;50.600;4.608;2023-03-16T07:46:23;2.40;;;0.80;;
22415;SDS011;12204;50.600;4.608;2023-03-16T07:51:27;1.98;;;0.70;;
22415;SDS011;12204;50.600;4.608;2023-03-16T07:56:33;2.03;;;0.80;;
22415;SDS011;12204;50.600;4.608;2023-03-16T08:01:58;2.10;;;0.82;;
22415;SDS011;12204;50.600;4.608;2023-03-16T08:07:02;2.42;;;0.70;;
22415;SDS011;12204;50.600;4.608;2023-03-16T08:12:22;2.60;;;0.70;;
22415;SDS011;12204;50.600;4.608;2023-03-16T08:17:29;1.98;;;0.77;;
22415;SDS011;12204;50.600;4.608;2023-03-16T08:22:34;2.00;;;0.80;;
22415;SDS011;12204;50.600;4.608;2023-03-16T08:27:39;1.77;;;0.70;;
22415;SDS011;12204;50.600;4.608;2023-03-16T08:32:43;1.90;;;0.90;;
22415;SDS011;12204;50.600;4.608;2023-03-16T08:37:48;2.15;;;0.80;;
22415;SDS011;12204;50.600;4.608;2023-03-16T08:42:53;1.52;;;0.70;;
22415;SDS011;12204;50.600;4.608;2023-03-16T08:47:56;2.13;;;0.70;;
22415;SDS011;12204;50.600;4.608;2023-03-16T08:53:00;1.15;;;0.70;;
22415;SDS011;12204;50.600;4.608;2023-03-16T08:58:04;2.05;;;0.70;;
22415;SDS011;12204;50.600;4.608;2023-03-16T09:03:08;2.15;;;0.70;;
22415;SDS011;12204;50.600;4.608;2023-03-16T09:08:12;1.88;;;0.80;;
22415;SDS011;12204;50.600;4.608;2023-03-16T09:13:16;1.75;;;0.77;;
22415;SDS011;12204;50.600;4.608;2023-03-16T09:18:20;2.28;;;0.85;;
22415;SDS011;12204;50.600;4.608;2023-03-16T09:23:24;2.08;;;0.90;;
22415;SDS011;12204;50.600;4.608;2023-03-16T09:28:30;1.63;;;0.70;;
22415;SDS011;12204;50.600;4.608;2023-03-16T09:33:33;1.65;;;0.70;;
22415;SDS011;12204;50.600;4.608;2023-03-16T09:38:38;1.98;;;0.65;;
22415;SDS011;12204;50.600;4.608;2023-03-16T09:43:46;1.42;;;0.70;;
22415;SDS011;12204;50.600;4.608;2023-03-16T09:49:05;2.70;;;0.77;;
22415;SDS011;12204;50.600;4.608;2023-03-16T09:54:16;1.90;;;0.70;;
22415;SDS011;12204;50.600;4.608;2023-03-16T09:59:29;1.50;;;0.60;;
22415;SDS011;12204;50.600;4.608;2023-03-16T10:04:38;1.65;;;0.63;;
22415;SDS011;12204;50.600;4.608;2023-03-16T10:09:49;1.52;;;0.70;;
22415;SDS011;12204;50.600;4.608;2023-03-16T10:15:02;1.85;;;0.80;;
22415;SDS011;12204;50.600;4.608;2023-03-16T10:20:13;2.38;;;0.88;;
22415;SDS011;12204;50.600;4.608;2023-03-16T10:25:21;1.90;;;0.77;;
22415;SDS011;12204;50.600;4.608;2023-03-16T10:30:34;2.55;;;0.80;;
22415;SDS011;12204;50.600;4.608;2023-03-16T10:35:43;2.53;;;0.82;;
22415;SDS011;12204;50.600;4.608;2023-03-16T10:40:50;1.73;;;0.80;;
22415;SDS011;12204;50.600;4.608;2023-03-16T10:45:59;1.70;;;0.80;;
22415;SDS011;12204;50.600;4.608;2023-03-16T10:51:05;2.22;;;0.70;;
22415;SDS011;12204;50.600;4.608;2023-03-16T10:56:18;1.23;;;0.65;;
22415;SDS011;12204;50.600;4.608;2023-03-16T11:01:27;1.67;;;0.70;;
22415;SDS011;12204;50.600;4.608;2023-03-16T11:06:34;1.38;;;0.65;;
22415;SDS011;12204;50.600;4.608;2023-03-16T11:11:37;1.55;;;0.80;;
22415;SDS011;12204;50.600;4.608;2023-03-16T11:16:43;1.40;;;0.68;;
22415;SDS011;12204;50.600;4.608;2023-03-16T11:21:54;1.30;;;0.60;;
22415;SDS011;12204;50.600;4.608;2023-03-16T11:27:08;2.00;;;0.70;;
22415;SDS011;12204;50.600;4.608;2023-03-16T11:32:24;1.92;;;0.70;;
22415;SDS011;12204;50.600;4.608;2023-03-16T11:37:37;1.52;;;0.60;;
22415;SDS011;12204;50.600;4.608;2023-03-16T11:42:59;2.22;;;0.77;;
22415;SDS011;12204;50.600;4.608;2023-03-16T11:48:25;1.95;;;0.70;;
22415;SDS011;12204;50.600;4.608;2023-03-16T11:53:43;1.10;;;0.70;;
22415;SDS011;12204;50.600;4.608;2023-03-16T12:04:45;2.03;;;0.70;;
22415;SDS011;12204;50.600;4.608;2023-03-16T12:10:10;1.85;;;0.70;;
22415;SDS011;12204;50.600;4.608;2023-03-16T12:15:29;1.60;;;0.70;;
22415;SDS011;12204;50.600;4.608;2023-03-16T12:20:42;1.48;;;0.63;;
22415;SDS011;12204;50.600;4.608;2023-03-16T12:25:54;1.10;;;0.60;;
22415;SDS011;12204;50.600;4.608;2023-03-16T12:31:04;1.85;;;0.70;;
22415;SDS011;12204;50.600;4.608;2023-03-16T12:36:24;1.83;;;0.68;;
22415;SDS011;12204;50.600;4.608;2023-03-16T12:42:01;1.75;;;0.60;;
22415;SDS011;12204;50.600;4.608;2023-03-16T12:47:25;1.75;;;0.65;;
22415;SDS011;12204;50.600;4.608;2023-03-16T12:52:40;1.20;;;0.60;;
22415;SDS011;12204;50.600;4.608;2023-03-16T12:57:46;0.93;;;0.53;;
22415;SDS011;12204;50.600;4.608;2023-03-16T13:02:53;1.52;;;0.70;;
22415;SDS011;12204;50.600;4.608;2023-03-16T13:08:05;2.20;;;0.67;;
22415;SDS011;12204;50.600;4.608;2023-03-16T13:13:12;2.00;;;0.68;;
22415;SDS011;12204;50.600;4.608;2023-03-16T13:18:20;1.35;;;0.60;;
22415;SDS011;12204;50.600;4.608;2023-03-16T13:23:27;2.03;;;0.70;;
22415;SDS011;12204;50.600;4.608;2023-03-16T13:28:56;1.80;;;0.60;;
22415;SDS011;12204;50.600;4.608;2023-03-16T13:34:00;1.60;;;0.60;;
22415;SDS011;12204;50.600;4.608;2023-03-16T13:39:12;1.30;;;0.60;;
22415;SDS011;12204;50.600;4.608;2023-03-16T13:44:20;1.20;;;0.60;;
22415;SDS011;12204;50.600;4.608;2023-03-16T13:49:25;0.88;;;0.60;;
22415;SDS011;12204;50.600;4.608;2023-03-16T13:54:30;1.67;;;0.65;;
22415;SDS011;12204;50.600;4.608;2023-03-16T13:59:33;1.45;;;0.60;;
22415;SDS011;12204;50.600;4.608;2023-03-16T14:04:37;1.58;;;0.60;;
22415;SDS011;12204;50.600;4.608;2023-03-16T14:09:45;1.70;;;0.77;;
22415;SDS011;12204;50.600;4.608;2023-03-16T14:14:50;2.17;;;0.70;;
22415;SDS011;12204;50.600;4.608;2023-03-16T14:19:57;1.63;;;0.60;;
22415;SDS011;12204;50.600;4.608;2023-03-16T14:25:04;1.45;;;0.50;;
22415;SDS011;12204;50.600;4.608;2023-03-16T14:30:16;1.63;;;0.65;;
22415;SDS011;12204;50.600;4.608;2023-03-16T14:35:27;1.83;;;0.60;;
22415;SDS011;12204;50.600;4.608;2023-03-16T14:40:34;1.08;;;0.60;;
22415;SDS011;12204;50.600;4.608;2023-03-16T14:45:40;2.20;;;0.80;;
22415;SDS011;12204;50.600;4.608;2023-03-16T14:50:44;2.92;;;0.68;;
22415;SDS011;12204;50.600;4.608;2023-03-16T14:55:51;2.65;;;0.60;;
22415;SDS011;12204;50.600;4.608;2023-03-16T15:00:54;1.20;;;0.60;;
22415;SDS011;12204;50.600;4.608;2023-03-16T15:05:58;1.17;;;0.60;;
22415;SDS011;12204;50.600;4.608;2023-03-16T15:11:04;1.52;;;0.57;;
22415;SDS011;12204;50.600;4.608;2023-03-16T15:16:09;1.42;;;0.60;;
22415;SDS011;12204;50.600;4.608;2023-03-16T15:21:15;2.90;;;0.70;;
22415;SDS011;12204;50.600;4.608;2023-03-16T15:26:25;1.95;;;0.70;;
22415;SDS011;12204;50.600;4.608;2023-03-16T15:31:30;1.27;;;0.60;;
22415;SDS011;12204;50.600;4.608;2023-03-16T15:36:34;0.95;;;0.57;;
22415;SDS011;12204;50.600;4.608;2023-03-16T15:41:39;1.52;;;0.70;;
22415;SDS011;12204;50.600;4.608;2023-03-16T15:46:48;1.17;;;0.60;;
22415;SDS011;12204;50.600;4.608;2023-03-16T15:51:51;1.45;;;0.65;;
22415;SDS011;12204;50.600;4.608;2023-03-16T15:56:56;1.15;;;0.60;;
22415;SDS011;12204;50.600;4.608;2023-03-16T16:02:00;1.42;;;0.60;;
22415;SDS011;12204;50.600;4.608;2023-03-16T16:07:05;1.80;;;0.75;;
22415;SDS011;12204;50.600;4.608;2023-03-16T16:12:13;1.63;;;0.60;;
22415;SDS011;12204;50.600;4.608;2023-03-16T16:17:18;1.35;;;0.60;;
22415;SDS011;12204;50.600;4.608;2023-03-16T16:22:41;1.10;;;0.60;;
22415;SDS011;12204;50.600;4.608;2023-03-16T16:27:46;1.27;;;0.63;;
22415;SDS011;12204;50.600;4.608;2023-03-16T16:32:51;1.30;;;0.60;;
22415;SDS011;12204;50.600;4.608;2023-03-16T16:37:58;1.58;;;0.60;;
22415;SDS011;12204;50.600;4.608;2023-03-16T16:43:03;1.70;;;0.70;;
22415;SDS011;12204;50.600;4.608;2023-03-16T16:48:12;1.40;;;0.60;;
22415;SDS011;12204;50.600;4.608;2023-03-16T16:53:33;1.30;;;0.77;;
22415;SDS011;12204;50.600;4.608;2023-03-16T16:58:38;1.58;;;0.70;;
22415;SDS011;12204;50.600;4.608;2023-03-16T17:03:42;1.30;;;0.60;;
22415;SDS011;12204;50.600;4.608;2023-03-16T17:08:46;1.60;;;0.60;;
22415;SDS011;12204;50.600;4.608;2023-03-16T17:13:52;0.70;;;0.60;;
22415;SDS011;12204;50.600;4.608;2023-03-16T17:19:00;1.90;;;0.73;;
22415;SDS011;12204;50.600;4.608;2023-03-16T17:24:03;1.67;;;0.60;;
22415;SDS011;12204;50.600;4.608;2023-03-16T17:29:13;4.88;;;0.70;;
22415;SDS011;12204;50.600;4.608;2023-03-16T17:34:23;2.75;;;0.80;;
22415;SDS011;12204;50.600;4.608;2023-03-16T17:39:30;1.23;;;0.60;;
22415;SDS011;12204;50.600;4.608;2023-03-16T17:44:38;1.52;;;0.60;;
22415;SDS011;12204;50.600;4.608;2023-03-16T17:49:47;1.17;;;0.55;;
22415;SDS011;12204;50.600;4.608;2023-03-16T17:54:51;1.05;;;0.60;;
22415;SDS011;12204;50.600;4.608;2023-03-16T17:59:57;0.82;;;0.50;;
22415;SDS011;12204;50.600;4.608;2023-03-16T18:05:05;1.35;;;0.65;;
22415;SDS011;12204;50.600;4.608;2023-03-16T18:10:20;2.75;;;0.80;;
22415;SDS011;12204;50.600;4.608;2023-03-16T18:15:30;1.65;;;0.60;;
22415;SDS011;12204;50.600;4.608;2023-03-16T18:20:36;2.55;;;0.70;;
22415;SDS011;12204;50.600;4.608;2023-03-16T18:25:40;1.38;;;0.60;;
22415;SDS011;12204;50.600;4.608;2023-03-16T18:30:46;1.80;;;0.70;;
22415;SDS011;12204;50.600;4.608;2023-03-16T18:35:54;1.77;;;0.60;;
22415;SDS011;12204;50.600;4.608;2023-03-16T18:41:02;1.35;;;0.65;;
22415;SDS011;12204;50.600;4.608;2023-03-16T18:46:22;2.30;;;0.70;;
22415;SDS011;12204;50.600;4.608;2023-03-16T18:51:30;1.10;;;0.70;;
22415;SDS011;12204;50.600;4.608;2023-03-16T18:56:35;1.02;;;0.60;;
22415;SDS011;12204;50.600;4.608;2023-03-16T19:01:40;1.27;;;0.57;;
22415;SDS011;12204;50.600;4.608;2023-03-16T19:06:46;1.97;;;0.80;;
22415;SDS011;12204;50.600;4.608;2023-03-16T19:11:52;1.55;;;0.60;;
22415;SDS011;12204;50.600;4.608;2023-03-16T19:16:57;1.08;;;0.60;;
22415;SDS011;12204;50.600;4.608;2023-03-16T19:22:02;2.85;;;0.80;;
22415;SDS011;12204;50.600;4.608;2023-03-16T19:27:12;1.48;;;0.70;;
22415;SDS011;12204;50.600;4.608;2023-03-16T19:32:23;1.42;;;0.77;;
22415;SDS011;12204;50.600;4.608;2023-03-16T19:37:27;0.95;;;0.60;;
22415;SDS011;12204;50.600;4.608;2023-03-16T19:42:32;2.00;;;0.70;;
22415;SDS011;12204;50.600;4.608;2023-03-16T19:47:38;1.38;;;0.65;;
22415;SDS011;12204;50.600;4.608;2023-03-16T19:52:42;1.33;;;0.68;;
22415;SDS011;12204;50.600;4.608;2023-03-16T19:57:47;1.85;;;0.80;;
22415;SDS011;12204;50.600;4.608;2023-03-16T20:02:58;2.42;;;0.80;;
22415;SDS011;12204;50.600;4.608;2023-03-16T20:08:01;1.55;;;0.70;;
22415;SDS011;12204;50.600;4.608;2023-03-16T20:13:21;1.38;;;0.70;;
22415;SDS011;12204;50.600;4.608;2023-03-16T20:18:27;1.77;;;0.75;;
22415;SDS011;12204;50.600;4.608;2023-03-16T20:23:31;2.28;;;0.80;;
22415;SDS011;12204;50.600;4.608;2023-03-16T20:28:35;2.05;;;0.80;;
22415;SDS011;12204;50.600;4.608;2023-03-16T20:33:41;2.25;;;0.73;;
22415;SDS011;12204;50.600;4.608;2023-03-16T20:38:44;1.50;;;0.70;;
22415;SDS011;12204;50.600;4.608;2023-03-16T20:43:48;2.17;;;0.80;;
22415;SDS011;12204;50.600;4.608;2023-03-16T20:48:54;2.25;;;0.80;;
22415;SDS011;12204;50.600;4.608;2023-03-16T20:53:59;2.25;;;0.73;;
22415;SDS011;12204;50.600;4.608;2023-03-16T20:59:02;1.55;;;0.80;;
22415;SDS011;12204;50.600;4.608;2023-03-16T21:04:09;1.75;;;0.70;;
22415;SDS011;12204;50.600;4.608;2023-03-16T21:09:23;1.52;;;0.80;;
22415;SDS011;12204;50.600;4.608;2023-03-16T21:14:28;3.15;;;0.90;;
22415;SDS011;12204;50.600;4.608;2023-03-16T21:19:33;1.65;;;0.70;;
22415;SDS011;12204;50.600;4.608;2023-03-16T21:24:36;1.80;;;0.70;;
22415;SDS011;12204;50.600;4.608;2023-03-16T21:29:39;1.50;;;0.80;;
22415;SDS011;12204;50.600;4.608;2023-03-16T21:34:45;2.03;;;0.80;;
22415;SDS011;12204;50.600;4.608;2023-03-16T21:39:49;1.48;;;0.80;;
22415;SDS011;12204;50.600;4.608;2023-03-16T21:44:53;2.30;;;0.80;;
22415;SDS011;12204;50.600;4.608;2023-03-16T21:49:58;2.60;;;0.80;;
22415;SDS011;12204;50.600;4.608;2023-03-16T21:55:08;1.90;;;0.90;;
22415;SDS011;12204;50.600;4.608;2023-03-16T22:00:24;2.42;;;0.90;;
22415;SDS011;12204;50.600;4.608;2023-03-16T22:10:39;2.03;;;0.88;;
22415;SDS011;12204;50.600;4.608;2023-03-16T22:15:43;1.35;;;0.80;;
22415;SDS011;12204;50.600;4.608;2023-03-16T22:20:50;2.25;;;0.90;;
22415;SDS011;12204;50.600;4.608;2023-03-16T22:25:53;2.05;;;0.88;;
22415;SDS011;12204;50.600;4.608;2023-03-16T22:30:57;1.70;;;0.82;;
22415;SDS011;12204;50.600;4.608;2023-03-16T22:36:05;2.20;;;0.80;;
22415;SDS011;12204;50.600;4.608;2023-03-16T22:41:13;1.77;;;0.80;;
22415;SDS011;12204;50.600;4.608;2023-03-16T22:46:19;1.65;;;0.80;;
22415;SDS011;12204;50.600;4.608;2023-03-16T22:51:27;2.25;;;0.93;;
22415;SDS011;12204;50.600;4.608;2023-03-16T22:56:35;2.05;;;0.82;;
22415;SDS011;12204;50.600;4.608;2023-03-16T23:01:45;2.65;;;0.85;;
22415;SDS011;12204;50.600;4.608;2023-03-16T23:06:52;2.25;;;0.80;;
22415;SDS011;12204;50.600;4.608;2023-03-16T23:11:56;1.58;;;0.70;;
22415;SDS011;12204;50.600;4.608;2023-03-16T23:17:04;2.97;;;0.88;;
22415;SDS011;12204;50.600;4.608;2023-03-16T23:22:19;1.98;;;0.80;;
22415;SDS011;12204;50.600;4.608;2023-03-16T23:27:22;2.55;;;0.90;;
22415;SDS011;12204;50.600;4.608;2023-03-16T23:32:26;2.17;;;0.80;;
22415;SDS011;12204;50.600;4.608;2023-03-16T23:37:31;1.85;;;0.80;;
22415;SDS011;12204;50.600;4.608;2023-03-16T23:42:34;1.63;;;0.80;;
22415;SDS011;12204;50.600;4.608;2023-03-16T23:47:38;1.63;;;0.70;;
22415;SDS011;12204;50.600;4.608;2023-03-16T23:52:43;2.03;;;0.93;;
22415;SDS011;12204;50.600;4.608;2023-03-16T23:57:47;1.65;;;0.80;;
